createdAt,value
2018-09-16T00:00:25.767Z,4.00
2018-09-16T00:01:25.787Z,4.00
2018-09-16T00:02:25.789Z,4.00
2018-09-16T00:03:26.049Z,4.00
2018-09-16T00:04:25.755Z,4.00
2018-09-16T00:05:25.709Z,4.00
2018-09-16T00:06:25.686Z,4.00
2018-09-16T00:07:25.688Z,4.00
2018-09-16T00:08:25.784Z,4.00
2018-09-16T00:09:25.673Z,4.00
2018-09-16T00:10:25.691Z,4.00
2018-09-16T00:11:25.666Z,4.00
2018-09-16T00:12:25.648Z,4.00
2018-09-16T00:13:25.600Z,4.00
2018-09-16T00:14:25.800Z,4.00
2018-09-16T00:15:25.607Z,4.00
2018-09-16T00:16:25.577Z,4.00
2018-09-16T00:17:25.612Z,4.00
2018-09-16T00:18:25.565Z,4.00
2018-09-16T00:19:25.716Z,4.00
2018-09-16T00:20:25.538Z,4.00
2018-09-16T00:21:25.586Z,4.00
2018-09-16T00:22:25.528Z,4.00
2018-09-16T00:23:25.516Z,4.00
2018-09-16T00:24:25.518Z,4.00
2018-09-16T00:25:25.820Z,4.00
2018-09-16T00:26:25.459Z,4.00
2018-09-16T00:27:25.456Z,4.00
2018-09-16T00:28:25.460Z,4.00
2018-09-16T00:29:25.429Z,4.00
2018-09-16T00:30:25.426Z,4.00
2018-09-16T00:31:25.408Z,4.00
2018-09-16T00:32:25.437Z,4.00
2018-09-16T00:33:25.373Z,4.00
2018-09-16T00:34:25.414Z,4.00
2018-09-16T00:35:25.353Z,4.00
2018-09-16T00:36:25.603Z,4.00
2018-09-16T00:37:25.329Z,4.00
2018-09-16T00:38:25.348Z,4.00
2018-09-16T00:39:25.371Z,4.00
2018-09-16T00:40:25.315Z,4.00
2018-09-16T00:41:25.335Z,4.00
2018-09-16T00:42:25.285Z,4.00
2018-09-16T00:43:25.280Z,4.00
2018-09-16T00:44:25.265Z,4.00
2018-09-16T00:45:25.238Z,4.00
2018-09-16T00:46:25.224Z,4.00
2018-09-16T00:47:25.238Z,4.00
2018-09-16T00:48:25.223Z,4.00
2018-09-16T00:49:25.199Z,4.00
2018-09-16T00:50:25.201Z,4.00
2018-09-16T00:51:25.196Z,4.00
2018-09-16T00:52:25.162Z,4.00
2018-09-16T00:53:25.140Z,4.00
2018-09-16T00:54:25.144Z,4.00
2018-09-16T00:55:25.154Z,4.00
2018-09-16T00:56:25.128Z,4.00
2018-09-16T00:57:25.117Z,4.00
2018-09-16T00:58:25.099Z,4.00
2018-09-16T00:59:25.087Z,4.00
2018-09-16T01:00:25.059Z,4.00
2018-09-16T01:01:25.069Z,4.00
2018-09-16T01:02:25.064Z,4.00
2018-09-16T01:03:25.147Z,4.00
2018-09-16T01:04:25.054Z,4.00
2018-09-16T01:05:25.019Z,4.00
2018-09-16T01:06:25.014Z,4.00
2018-09-16T01:07:24.999Z,4.00
2018-09-16T01:08:24.983Z,4.00
2018-09-16T01:09:24.962Z,4.00
2018-09-16T01:10:24.960Z,4.00
2018-09-16T01:11:24.991Z,4.00
2018-09-16T01:12:24.949Z,4.00
2018-09-16T01:13:24.938Z,4.00
2018-09-16T01:14:24.918Z,4.00
2018-09-16T01:15:24.907Z,4.00
2018-09-16T01:16:24.908Z,4.00
2018-09-16T01:17:24.871Z,4.00
2018-09-16T01:18:24.891Z,4.00
2018-09-16T01:19:24.893Z,4.00
2018-09-16T01:20:24.838Z,4.00
2018-09-16T01:21:24.841Z,4.00
2018-09-16T01:22:24.849Z,4.00
2018-09-16T01:23:24.801Z,4.00
2018-09-16T01:24:24.803Z,4.00
2018-09-16T01:25:24.789Z,4.00
2018-09-16T01:26:24.771Z,4.00
2018-09-16T01:27:24.786Z,4.00
2018-09-16T01:28:24.761Z,4.00
2018-09-16T01:29:24.843Z,4.00
2018-09-16T01:30:24.760Z,4.00
2018-09-16T01:31:24.747Z,4.00
2018-09-16T01:32:24.720Z,4.00
2018-09-16T01:33:24.748Z,4.00
2018-09-16T01:34:24.699Z,4.00
2018-09-16T01:35:24.986Z,4.00
2018-09-16T01:36:24.676Z,4.00
2018-09-16T01:37:24.644Z,4.00
2018-09-16T01:38:24.683Z,4.00
2018-09-16T01:39:24.615Z,4.00
2018-09-16T01:40:24.626Z,4.00
2018-09-16T01:41:24.908Z,4.00
2018-09-16T01:42:24.575Z,4.00
2018-09-16T01:43:24.607Z,4.00
2018-09-16T01:44:24.613Z,4.00
2018-09-16T01:45:24.576Z,4.00
2018-09-16T01:46:24.532Z,4.00
2018-09-16T01:47:24.547Z,4.00
2018-09-16T01:48:24.531Z,4.00
2018-09-16T01:49:24.526Z,4.00
2018-09-16T01:50:24.501Z,4.00
2018-09-16T01:51:24.502Z,4.00
2018-09-16T01:52:24.582Z,4.00
2018-09-16T01:53:24.490Z,4.00
2018-09-16T01:54:24.469Z,4.00
2018-09-16T01:55:24.464Z,4.00
2018-09-16T01:56:24.424Z,4.00
2018-09-16T01:57:24.493Z,4.00
2018-09-16T01:58:24.390Z,4.00
2018-09-16T01:59:24.387Z,4.00
2018-09-16T02:00:24.393Z,4.00
2018-09-16T02:01:24.393Z,4.00
2018-09-16T02:02:24.375Z,4.00
2018-09-16T02:03:24.359Z,4.00
2018-09-16T02:04:24.368Z,4.00
2018-09-16T02:05:24.338Z,4.00
2018-09-16T02:06:24.353Z,4.00
2018-09-16T02:07:24.304Z,4.00
2018-09-16T02:08:24.300Z,4.00
2018-09-16T02:09:24.325Z,4.00
2018-09-16T02:10:24.260Z,4.00
2018-09-16T02:11:24.257Z,4.00
2018-09-16T02:12:24.255Z,4.00
2018-09-16T02:13:24.220Z,4.00
2018-09-16T02:14:24.261Z,4.00
2018-09-16T02:15:24.216Z,4.00
2018-09-16T02:16:24.199Z,4.00
2018-09-16T02:17:24.196Z,4.00
2018-09-16T02:18:24.275Z,4.00
2018-09-16T02:19:24.168Z,4.00
2018-09-16T02:20:24.159Z,4.00
2018-09-16T02:21:24.169Z,4.00
2018-09-16T02:22:24.143Z,4.00
2018-09-16T02:23:24.161Z,4.00
2018-09-16T02:24:24.118Z,4.00
2018-09-16T02:25:24.102Z,4.00
2018-09-16T02:26:24.089Z,4.00
2018-09-16T02:27:24.088Z,4.00
2018-09-16T02:28:24.082Z,4.00
2018-09-16T02:29:24.058Z,4.00
2018-09-16T02:30:24.080Z,4.00
2018-09-16T02:31:24.090Z,4.00
2018-09-16T02:32:24.016Z,4.00
2018-09-16T02:33:24.001Z,4.00
2018-09-16T02:34:24.027Z,4.00
2018-09-16T02:35:24.008Z,4.00
2018-09-16T02:36:24.023Z,4.00
2018-09-16T02:37:23.977Z,4.00
2018-09-16T02:38:23.955Z,4.00
2018-09-16T02:39:24.050Z,4.00
2018-09-16T02:40:23.976Z,4.00
2018-09-16T02:41:23.971Z,4.00
2018-09-16T02:42:23.909Z,4.00
2018-09-16T02:43:23.963Z,4.00
2018-09-16T02:44:23.897Z,4.00
2018-09-16T02:45:24.006Z,4.00
2018-09-16T02:46:23.880Z,4.00
2018-09-16T02:47:23.858Z,4.00
2018-09-16T02:48:23.855Z,4.00
2018-09-16T02:49:23.846Z,4.00
2018-09-16T02:50:23.848Z,4.00
2018-09-16T02:51:24.114Z,4.00
2018-09-16T02:52:23.803Z,4.00
2018-09-16T02:53:23.796Z,4.00
2018-09-16T02:54:23.777Z,4.00
2018-09-16T02:55:23.783Z,4.00
2018-09-16T02:56:23.767Z,4.00
2018-09-16T02:57:24.058Z,4.00
2018-09-16T02:58:23.757Z,4.00
2018-09-16T02:59:23.727Z,4.00
2018-09-16T03:00:23.748Z,4.00
2018-09-16T03:01:23.703Z,4.00
2018-09-16T03:02:23.702Z,4.00
2018-09-16T03:03:23.697Z,4.00
2018-09-16T03:04:23.685Z,4.00
2018-09-16T03:05:23.665Z,4.00
2018-09-16T03:06:23.636Z,4.00
2018-09-16T03:07:23.623Z,4.00
2018-09-16T03:08:23.733Z,4.00
2018-09-16T03:09:23.628Z,4.00
2018-09-16T03:10:23.595Z,4.00
2018-09-16T03:11:23.598Z,4.00
2018-09-16T03:12:23.595Z,4.00
2018-09-16T03:13:23.830Z,4.00
2018-09-16T03:14:23.571Z,4.00
2018-09-16T03:15:23.567Z,4.00
2018-09-16T03:16:23.538Z,4.00
2018-09-16T03:17:23.564Z,4.00
2018-09-16T03:18:23.602Z,4.00
2018-09-16T03:19:23.553Z,4.00
2018-09-16T03:20:23.499Z,4.00
2018-09-16T03:21:23.491Z,4.00
2018-09-16T03:22:23.477Z,4.00
2018-09-16T03:23:23.488Z,4.00
2018-09-16T03:24:23.449Z,4.00
2018-09-16T03:25:23.450Z,4.00
2018-09-16T03:26:23.418Z,4.00
2018-09-16T03:27:23.405Z,4.00
2018-09-16T03:28:23.519Z,4.00
2018-09-16T03:29:23.387Z,4.00
2018-09-16T03:30:23.365Z,4.00
2018-09-16T03:31:23.380Z,4.00
2018-09-16T03:32:23.350Z,4.00
2018-09-16T03:33:23.698Z,4.00
2018-09-16T03:34:23.322Z,4.00
2018-09-16T03:35:23.328Z,4.00
2018-09-16T03:36:23.318Z,4.00
2018-09-16T03:37:23.302Z,4.00
2018-09-16T03:38:23.406Z,4.00
2018-09-16T03:39:23.288Z,4.00
2018-09-16T03:40:23.301Z,4.00
2018-09-16T03:41:23.302Z,4.00
2018-09-16T03:42:23.239Z,4.00
2018-09-16T03:43:23.233Z,4.00
2018-09-16T03:44:23.521Z,4.00
2018-09-16T03:45:23.210Z,4.00
2018-09-16T03:46:23.196Z,4.00
2018-09-16T03:47:23.222Z,4.00
2018-09-16T03:48:23.239Z,4.00
2018-09-16T03:49:23.209Z,4.00
2018-09-16T03:50:23.205Z,4.00
2018-09-16T03:51:23.155Z,4.00
2018-09-16T03:52:23.139Z,4.00
2018-09-16T03:53:23.134Z,4.00
2018-09-16T03:54:23.117Z,4.00
2018-09-16T03:55:23.144Z,4.00
2018-09-16T03:56:23.065Z,4.00
2018-09-16T03:57:23.095Z,4.00
2018-09-16T03:58:23.058Z,4.00
2018-09-16T03:59:23.046Z,4.00
2018-09-16T04:00:23.304Z,4.00
2018-09-16T04:01:23.039Z,4.00
2018-09-16T04:02:23.056Z,4.00
2018-09-16T04:03:23.017Z,4.00
2018-09-16T04:04:23.009Z,4.00
2018-09-16T04:05:22.980Z,4.00
2018-09-16T04:06:23.090Z,4.00
2018-09-16T04:07:22.964Z,4.00
2018-09-16T04:08:22.945Z,4.00
2018-09-16T04:09:22.944Z,4.00
2018-09-16T04:10:22.977Z,4.00
2018-09-16T04:11:22.925Z,4.00
2018-09-16T04:12:22.957Z,4.00
2018-09-16T04:13:22.885Z,4.00
2018-09-16T04:14:22.903Z,4.00
2018-09-16T04:15:22.890Z,4.00
2018-09-16T04:16:22.871Z,4.00
2018-09-16T04:17:22.843Z,4.00
2018-09-16T04:18:22.858Z,4.00
2018-09-16T04:19:22.832Z,4.00
2018-09-16T04:20:22.835Z,4.00
2018-09-16T04:21:22.817Z,4.00
2018-09-16T04:22:22.908Z,4.00
2018-09-16T04:23:22.782Z,4.00
2018-09-16T04:24:22.754Z,4.00
2018-09-16T04:25:22.763Z,4.00
2018-09-16T04:26:22.774Z,4.00
2018-09-16T04:27:23.028Z,4.00
2018-09-16T04:28:22.738Z,4.00
2018-09-16T04:29:22.709Z,4.00
2018-09-16T04:30:22.710Z,4.00
2018-09-16T04:31:22.683Z,4.00
2018-09-16T04:32:22.781Z,4.00
2018-09-16T04:33:22.749Z,4.00
2018-09-16T04:34:22.690Z,4.00
2018-09-16T04:35:22.703Z,4.00
2018-09-16T04:36:22.620Z,4.00
2018-09-16T04:37:22.895Z,4.00
2018-09-16T04:38:22.617Z,4.00
2018-09-16T04:39:22.681Z,4.00
2018-09-16T04:40:22.637Z,4.00
2018-09-16T04:41:22.581Z,4.00
2018-09-16T04:42:22.687Z,4.00
2018-09-16T04:43:22.597Z,4.00
2018-09-16T04:44:22.564Z,4.00
2018-09-16T04:45:22.538Z,4.00
2018-09-16T04:46:22.530Z,4.00
2018-09-16T04:47:22.527Z,4.00
2018-09-16T04:48:22.913Z,4.00
2018-09-16T04:49:22.511Z,4.00
2018-09-16T04:50:22.483Z,4.00
2018-09-16T04:51:22.473Z,4.00
2018-09-16T04:52:22.456Z,4.00
2018-09-16T04:53:22.554Z,4.00
2018-09-16T04:54:22.437Z,4.00
2018-09-16T04:55:22.455Z,4.00
2018-09-16T04:56:22.414Z,4.00
2018-09-16T04:57:22.399Z,4.00
2018-09-16T04:58:22.625Z,4.00
2018-09-16T04:59:22.365Z,4.00
2018-09-16T05:00:22.376Z,4.00
2018-09-16T05:01:22.357Z,4.00
2018-09-16T05:02:22.400Z,4.00
2018-09-16T05:03:22.378Z,4.00
2018-09-16T05:04:22.338Z,4.00
2018-09-16T05:05:22.325Z,4.00
2018-09-16T05:06:22.306Z,4.00
2018-09-16T05:07:22.318Z,4.00
2018-09-16T05:08:22.278Z,4.00
2018-09-16T05:09:22.285Z,4.00
2018-09-16T05:10:22.279Z,4.00
2018-09-16T05:11:22.222Z,4.00
2018-09-16T05:12:22.281Z,4.00
2018-09-16T05:13:22.235Z,4.00
2018-09-16T05:14:22.308Z,4.00
2018-09-16T05:15:22.226Z,4.00
2018-09-16T05:16:22.185Z,4.00
2018-09-16T05:17:22.187Z,4.00
2018-09-16T05:18:22.203Z,4.00
2018-09-16T05:19:22.162Z,4.00
2018-09-16T05:20:22.145Z,4.00
2018-09-16T05:21:22.107Z,4.00
2018-09-16T05:22:22.152Z,4.00
2018-09-16T05:23:22.112Z,4.00
2018-09-16T05:24:22.107Z,4.00
2018-09-16T05:25:22.100Z,4.00
2018-09-16T05:26:22.084Z,4.00
2018-09-16T05:27:22.079Z,4.00
2018-09-16T05:28:22.048Z,4.00
2018-09-16T05:29:22.039Z,4.00
2018-09-16T05:30:22.019Z,4.00
2018-09-16T05:31:22.106Z,4.00
2018-09-16T05:32:22.063Z,4.00
2018-09-16T05:33:21.988Z,4.00
2018-09-16T05:34:22.006Z,4.00
2018-09-16T05:35:22.078Z,4.00
2018-09-16T05:36:21.973Z,4.00
2018-09-16T05:37:21.961Z,4.00
2018-09-16T05:38:21.939Z,4.00
2018-09-16T05:39:21.948Z,4.00
2018-09-16T05:40:21.971Z,4.00
2018-09-16T05:41:21.898Z,4.00
2018-09-16T05:42:21.904Z,4.00
2018-09-16T05:43:22.003Z,4.00
2018-09-16T05:44:21.893Z,4.00
2018-09-16T05:45:22.008Z,4.00
2018-09-16T05:46:21.862Z,4.00
2018-09-16T05:47:21.834Z,4.00
2018-09-16T05:48:21.831Z,4.00
2018-09-16T05:49:21.820Z,4.00
2018-09-16T05:50:21.913Z,4.00
2018-09-16T05:51:21.839Z,4.00
2018-09-16T05:52:21.792Z,4.00
2018-09-16T05:53:21.902Z,4.00
2018-09-16T05:54:21.764Z,4.00
2018-09-16T05:55:21.751Z,4.00
2018-09-16T05:56:22.061Z,4.00
2018-09-16T05:57:21.723Z,4.00
2018-09-16T05:58:21.704Z,4.00
2018-09-16T05:59:21.712Z,4.00
2018-09-16T06:00:21.698Z,4.00
2018-09-16T06:01:21.769Z,4.00
2018-09-16T06:02:21.700Z,4.00
2018-09-16T06:03:21.660Z,4.00
2018-09-16T06:04:21.651Z,4.00
2018-09-16T06:05:21.637Z,4.00
2018-09-16T06:06:21.874Z,4.00
2018-09-16T06:07:21.609Z,4.00
2018-09-16T06:08:21.637Z,4.00
2018-09-16T06:09:21.585Z,4.00
2018-09-16T06:10:21.556Z,4.00
2018-09-16T06:11:21.674Z,4.00
2018-09-16T06:12:21.589Z,4.00
2018-09-16T06:13:21.520Z,4.00
2018-09-16T06:14:21.542Z,4.00
2018-09-16T06:15:21.520Z,4.00
2018-09-16T06:16:21.740Z,4.00
2018-09-16T06:17:21.483Z,4.00
2018-09-16T06:18:21.478Z,4.00
2018-09-16T06:19:21.474Z,4.00
2018-09-16T06:20:21.466Z,4.00
2018-09-16T06:21:21.761Z,4.00
2018-09-16T06:22:21.441Z,4.00
2018-09-16T06:23:21.421Z,4.00
2018-09-16T06:24:21.415Z,4.00
2018-09-16T06:25:21.376Z,4.00
2018-09-16T06:26:21.492Z,4.00
2018-09-16T06:27:21.387Z,4.00
2018-09-16T06:28:21.372Z,4.00
2018-09-16T06:29:21.345Z,4.00
2018-09-16T06:30:21.355Z,4.00
2018-09-16T06:31:21.311Z,4.00
2018-09-16T06:32:21.584Z,4.00
2018-09-16T06:33:21.320Z,4.00
2018-09-16T06:34:21.283Z,4.00
2018-09-16T06:35:21.285Z,4.00
2018-09-16T06:36:21.272Z,4.00
2018-09-16T06:37:21.278Z,4.00
2018-09-16T06:38:21.257Z,4.00
2018-09-16T06:39:21.292Z,4.00
2018-09-16T06:40:21.243Z,4.00
2018-09-16T06:41:21.262Z,4.00
2018-09-16T06:42:21.207Z,4.00
2018-09-16T06:43:21.219Z,4.00
2018-09-16T06:44:21.195Z,4.00
2018-09-16T06:45:21.176Z,4.00
2018-09-16T06:46:21.168Z,4.00
2018-09-16T06:47:21.159Z,4.00
2018-09-16T06:48:21.228Z,4.00
2018-09-16T06:49:21.115Z,4.00
2018-09-16T06:50:21.115Z,4.00
2018-09-16T06:51:21.102Z,4.00
2018-09-16T06:52:21.091Z,4.00
2018-09-16T06:53:21.088Z,4.00
2018-09-16T06:54:21.377Z,4.00
2018-09-16T06:55:21.055Z,4.00
2018-09-16T06:56:21.041Z,4.00
2018-09-16T06:57:21.023Z,4.00
2018-09-16T06:58:21.021Z,4.00
2018-09-16T06:59:20.998Z,4.00
2018-09-16T07:00:20.991Z,4.00
2018-09-16T07:01:20.988Z,4.00
2018-09-16T07:02:20.960Z,4.00
2018-09-16T07:03:20.969Z,4.00
2018-09-16T07:04:20.956Z,4.00
2018-09-16T07:05:20.939Z,4.00
2018-09-16T07:06:20.927Z,4.00
2018-09-16T07:07:20.913Z,4.00
2018-09-16T07:08:20.938Z,4.00
2018-09-16T07:09:20.898Z,4.00
2018-09-16T07:10:20.980Z,4.00
2018-09-16T07:11:20.900Z,4.00
2018-09-16T07:12:20.871Z,4.00
2018-09-16T07:13:20.886Z,4.00
2018-09-16T07:14:20.889Z,4.00
2018-09-16T07:15:20.805Z,4.00
2018-09-16T07:16:20.806Z,4.00
2018-09-16T07:17:20.777Z,4.00
2018-09-16T07:18:20.812Z,4.00
2018-09-16T07:19:20.772Z,4.00
2018-09-16T07:20:20.802Z,4.00
2018-09-16T07:21:21.050Z,4.00
2018-09-16T07:22:20.722Z,4.00
2018-09-16T07:23:20.724Z,4.00
2018-09-16T07:24:20.716Z,4.00
2018-09-16T07:25:20.706Z,4.00
2018-09-16T07:26:20.995Z,4.00
2018-09-16T07:27:20.740Z,4.00
2018-09-16T07:28:20.654Z,4.00
2018-09-16T07:29:20.645Z,4.00
2018-09-16T07:30:20.668Z,4.00
2018-09-16T07:31:20.633Z,4.00
2018-09-16T07:32:20.640Z,4.00
2018-09-16T07:33:20.600Z,4.00
2018-09-16T07:34:20.605Z,4.00
2018-09-16T07:35:20.580Z,4.00
2018-09-16T07:36:20.565Z,4.00
2018-09-16T07:37:20.581Z,4.00
2018-09-16T07:38:20.537Z,4.00
2018-09-16T07:39:20.555Z,4.00
2018-09-16T07:40:20.540Z,4.00
2018-09-16T07:41:20.514Z,4.00
2018-09-16T07:42:20.511Z,4.00
2018-09-16T07:43:20.501Z,4.00
2018-09-16T07:44:20.489Z,4.00
2018-09-16T07:45:20.484Z,4.00
2018-09-16T07:46:20.489Z,4.00
2018-09-16T07:47:20.576Z,4.00
2018-09-16T07:48:20.413Z,4.00
2018-09-16T07:49:20.416Z,4.00
2018-09-16T07:50:20.477Z,4.00
2018-09-16T07:51:20.403Z,4.00
2018-09-16T07:52:20.379Z,4.00
2018-09-16T07:53:20.502Z,4.00
2018-09-16T07:54:20.363Z,4.00
2018-09-16T07:55:20.360Z,4.00
2018-09-16T07:56:20.330Z,4.00
2018-09-16T07:57:20.329Z,4.00
2018-09-16T07:58:20.609Z,4.00
2018-09-16T07:59:20.312Z,4.00
2018-09-16T08:00:20.335Z,4.00
2018-09-16T08:01:20.297Z,4.00
2018-09-16T08:02:20.258Z,4.00
2018-09-16T08:03:20.264Z,4.00
2018-09-16T08:04:20.249Z,4.00
2018-09-16T08:05:20.233Z,4.00
2018-09-16T08:06:20.273Z,4.00
2018-09-16T08:07:20.256Z,4.00
2018-09-16T08:08:20.185Z,4.00
2018-09-16T08:09:20.503Z,4.00
2018-09-16T08:10:20.172Z,4.00
2018-09-16T08:11:20.170Z,4.00
2018-09-16T08:12:20.151Z,4.00
2018-09-16T08:13:20.131Z,4.00
2018-09-16T08:14:20.143Z,4.00
2018-09-16T08:15:20.374Z,4.00
2018-09-16T08:16:20.114Z,4.00
2018-09-16T08:17:20.098Z,4.00
2018-09-16T08:18:20.085Z,4.00
2018-09-16T08:19:20.101Z,4.00
2018-09-16T08:20:20.057Z,4.00
2018-09-16T08:21:20.208Z,4.00
2018-09-16T08:22:20.088Z,4.00
2018-09-16T08:23:20.046Z,4.00
2018-09-16T08:24:20.029Z,4.00
2018-09-16T08:25:20.016Z,4.00
2018-09-16T08:26:20.312Z,4.00
2018-09-16T08:27:19.993Z,4.00
2018-09-16T08:28:19.991Z,4.00
2018-09-16T08:29:19.974Z,4.00
2018-09-16T08:30:19.965Z,4.00
2018-09-16T08:31:19.945Z,4.00
2018-09-16T08:32:19.911Z,4.00
2018-09-16T08:33:19.965Z,4.00
2018-09-16T08:34:19.921Z,4.00
2018-09-16T08:35:19.894Z,4.00
2018-09-16T08:36:19.921Z,4.00
2018-09-16T08:37:20.188Z,4.00
2018-09-16T08:38:19.880Z,4.00
2018-09-16T08:39:19.840Z,4.00
2018-09-16T08:40:19.846Z,4.00
2018-09-16T08:41:19.817Z,4.00
2018-09-16T08:42:20.098Z,4.00
2018-09-16T08:43:19.809Z,4.00
2018-09-16T08:44:19.778Z,8.00
2018-09-16T08:45:19.784Z,8.00
2018-09-16T08:46:19.802Z,8.00
2018-09-16T08:47:19.833Z,8.00
2018-09-16T08:48:19.725Z,8.00
2018-09-16T08:49:19.733Z,8.00
2018-09-16T08:50:19.739Z,8.00
2018-09-16T08:51:19.694Z,8.00
2018-09-16T08:52:19.742Z,8.00
2018-09-16T08:53:19.683Z,12.00
2018-09-16T08:54:19.682Z,8.00
2018-09-16T08:55:19.666Z,12.00
2018-09-16T08:56:19.670Z,12.00
2018-09-16T08:57:19.634Z,8.00
2018-09-16T08:58:19.653Z,12.00
2018-09-16T08:59:19.624Z,12.00
2018-09-16T09:00:19.604Z,12.00
2018-09-16T09:01:19.632Z,12.00
2018-09-16T09:02:19.561Z,12.00
2018-09-16T09:03:19.547Z,16.00
2018-09-16T09:04:19.617Z,16.00
2018-09-16T09:05:19.519Z,12.00
2018-09-16T09:06:19.537Z,12.00
2018-09-16T09:07:19.541Z,12.00
2018-09-16T09:08:19.542Z,16.00
2018-09-16T09:09:19.494Z,16.00
2018-09-16T09:10:19.485Z,16.00
2018-09-16T09:11:19.453Z,20.00
2018-09-16T09:12:19.452Z,20.00
2018-09-16T09:13:19.450Z,20.00
2018-09-16T09:14:19.436Z,20.00
2018-09-16T09:15:19.406Z,20.00
2018-09-16T09:16:19.426Z,24.00
2018-09-16T09:17:19.408Z,24.00
2018-09-16T09:18:19.496Z,24.00
2018-09-16T09:19:19.370Z,24.00
2018-09-16T09:20:19.376Z,24.00
2018-09-16T09:21:19.354Z,28.00
2018-09-16T09:22:19.387Z,28.00
2018-09-16T09:23:19.654Z,36.00
2018-09-16T09:24:19.303Z,36.00
2018-09-16T09:25:19.290Z,44.00
2018-09-16T09:26:19.331Z,52.00
2018-09-16T09:27:19.286Z,60.00
2018-09-16T09:28:19.272Z,64.00
2018-09-16T09:29:19.272Z,76.00
2018-09-16T09:30:19.256Z,72.00
2018-09-16T09:31:19.239Z,76.00
2018-09-16T09:32:19.217Z,84.00
2018-09-16T09:33:19.213Z,88.00
2018-09-16T09:34:19.443Z,84.00
2018-09-16T09:35:19.171Z,88.00
2018-09-16T09:36:19.159Z,92.00
2018-09-16T09:37:19.148Z,116.00
2018-09-16T09:38:19.142Z,124.00
2018-09-16T09:39:19.141Z,128.00
2018-09-16T09:40:19.124Z,116.00
2018-09-16T09:41:19.125Z,124.00
2018-09-16T09:42:19.097Z,132.00
2018-09-16T09:43:19.089Z,112.00
2018-09-16T09:44:19.057Z,140.00
2018-09-16T09:45:19.337Z,152.00
2018-09-16T09:46:19.099Z,156.00
2018-09-16T09:47:19.037Z,148.00
2018-09-16T09:48:19.047Z,144.00
2018-09-16T09:49:19.021Z,164.00
2018-09-16T09:50:19.061Z,116.00
2018-09-16T09:51:19.297Z,108.00
2018-09-16T09:52:18.994Z,132.00
2018-09-16T09:53:19.006Z,156.00
2018-09-16T09:54:18.976Z,168.00
2018-09-16T09:55:18.992Z,132.00
2018-09-16T09:56:19.047Z,88.00
2018-09-16T09:57:18.926Z,84.00
2018-09-16T09:58:18.910Z,112.00
2018-09-16T09:59:18.947Z,140.00
2018-09-16T10:00:18.893Z,136.00
2018-09-16T10:01:18.866Z,96.00
2018-09-16T10:02:18.949Z,76.00
2018-09-16T10:03:18.874Z,92.00
2018-09-16T10:04:18.826Z,136.00
2018-09-16T10:05:18.869Z,112.00
2018-09-16T10:06:18.809Z,152.00
2018-09-16T10:07:18.816Z,164.00
2018-09-16T10:08:19.077Z,172.00
2018-09-16T10:09:18.778Z,176.00
2018-09-16T10:10:18.760Z,172.00
2018-09-16T10:11:18.772Z,176.00
2018-09-16T10:12:18.742Z,160.00
2018-09-16T10:13:18.738Z,136.00
2018-09-16T10:14:18.747Z,180.00
2018-09-16T10:15:18.697Z,224.00
2018-09-16T10:16:18.700Z,216.00
2018-09-16T10:17:18.683Z,188.00
2018-09-16T10:18:18.694Z,140.00
2018-09-16T10:19:18.653Z,212.00
2018-09-16T10:20:18.654Z,216.00
2018-09-16T10:21:18.680Z,188.00
2018-09-16T10:22:18.623Z,152.00
2018-09-16T10:23:18.625Z,116.00
2018-09-16T10:24:18.592Z,212.00
2018-09-16T10:25:18.610Z,264.00
2018-09-16T10:26:18.576Z,260.00
2018-09-16T10:27:18.594Z,252.00
2018-09-16T10:28:18.552Z,180.00
2018-09-16T10:29:18.584Z,168.00
2018-09-16T10:30:18.539Z,224.00
2018-09-16T10:31:18.533Z,308.00
2018-09-16T10:32:18.529Z,336.00
2018-09-16T10:33:18.500Z,376.00
2018-09-16T10:34:18.601Z,380.00
2018-09-16T10:35:18.488Z,392.00
2018-09-16T10:36:18.477Z,400.00
2018-09-16T10:37:18.451Z,408.00
2018-09-16T10:38:18.465Z,432.00
2018-09-16T10:39:18.448Z,388.00
2018-09-16T10:40:18.420Z,392.00
2018-09-16T10:41:18.407Z,396.00
2018-09-16T10:42:18.406Z,372.00
2018-09-16T10:43:18.387Z,336.00
2018-09-16T10:44:18.401Z,324.00
2018-09-16T10:45:18.357Z,320.00
2018-09-16T10:46:18.395Z,316.00
2018-09-16T10:47:18.357Z,296.00
2018-09-16T10:48:18.358Z,280.00
2018-09-16T10:49:18.322Z,312.00
2018-09-16T10:50:18.315Z,352.00
2018-09-16T10:51:18.514Z,380.00
2018-09-16T10:52:18.272Z,384.00
2018-09-16T10:53:18.319Z,432.00
2018-09-16T10:54:18.274Z,452.00
2018-09-16T10:55:18.242Z,384.00
2018-09-16T10:56:18.244Z,248.00
2018-09-16T10:57:18.309Z,296.00
2018-09-16T10:58:18.209Z,312.00
2018-09-16T10:59:18.208Z,292.00
2018-09-16T11:00:18.192Z,308.00
2018-09-16T11:01:18.179Z,296.00
2018-09-16T11:02:18.161Z,316.00
2018-09-16T11:03:18.266Z,356.00
2018-09-16T11:04:18.129Z,344.00
2018-09-16T11:05:18.114Z,368.00
2018-09-16T11:06:18.126Z,392.00
2018-09-16T11:07:18.120Z,424.00
2018-09-16T11:08:18.261Z,456.00
2018-09-16T11:09:18.077Z,476.00
2018-09-16T11:10:18.074Z,488.00
2018-09-16T11:11:18.073Z,524.00
2018-09-16T11:12:18.044Z,596.00
2018-09-16T11:13:18.046Z,596.00
2018-09-16T11:14:18.040Z,544.00
2018-09-16T11:15:18.028Z,524.00
2018-09-16T11:16:18.055Z,476.00
2018-09-16T11:17:18.001Z,448.00
2018-09-16T11:18:17.986Z,244.00
2018-09-16T11:19:18.056Z,392.00
2018-09-16T11:20:17.955Z,456.00
2018-09-16T11:21:17.944Z,524.00
2018-09-16T11:22:17.954Z,524.00
2018-09-16T11:23:17.922Z,508.00
2018-09-16T11:24:17.948Z,508.00
2018-09-16T11:25:18.167Z,528.00
2018-09-16T11:26:17.878Z,540.00
2018-09-16T11:27:17.879Z,548.00
2018-09-16T11:28:17.902Z,564.00
2018-09-16T11:29:17.899Z,548.00
2018-09-16T11:30:17.888Z,544.00
2018-09-16T11:31:17.842Z,544.00
2018-09-16T11:32:17.851Z,540.00
2018-09-16T11:33:17.815Z,572.00
2018-09-16T11:34:17.819Z,632.00
2018-09-16T11:35:17.782Z,648.00
2018-09-16T11:36:17.786Z,668.00
2018-09-16T11:37:17.751Z,752.00
2018-09-16T11:38:17.758Z,836.00
2018-09-16T11:39:17.758Z,952.00
2018-09-16T11:40:17.786Z,972.00
2018-09-16T11:41:17.805Z,916.00
2018-09-16T11:42:17.715Z,852.00
2018-09-16T11:43:17.689Z,800.00
2018-09-16T11:44:17.693Z,744.00
2018-09-16T11:45:17.735Z,704.00
2018-09-16T11:46:17.673Z,688.00
2018-09-16T11:47:17.750Z,692.00
2018-09-16T11:48:17.679Z,636.00
2018-09-16T11:49:17.648Z,624.00
2018-09-16T11:50:17.652Z,552.00
2018-09-16T11:51:17.631Z,568.00
2018-09-16T11:52:17.858Z,556.00
2018-09-16T11:53:17.600Z,628.00
2018-09-16T11:54:17.577Z,568.00
2018-09-16T11:55:17.608Z,644.00
2018-09-16T11:56:17.575Z,624.00
2018-09-16T11:57:17.539Z,520.00
2018-09-16T11:58:17.638Z,592.00
2018-09-16T11:59:17.515Z,624.00
2018-09-16T12:00:17.532Z,556.00
2018-09-16T12:01:17.561Z,624.00
2018-09-16T12:02:17.494Z,640.00
2018-09-16T12:03:17.488Z,628.00
2018-09-16T12:04:17.469Z,608.00
2018-09-16T12:05:17.501Z,620.00
2018-09-16T12:06:17.468Z,716.00
2018-09-16T12:07:17.422Z,740.00
2018-09-16T12:08:17.529Z,688.00
2018-09-16T12:09:17.396Z,696.00
2018-09-16T12:10:17.391Z,732.00
2018-09-16T12:11:17.411Z,720.00
2018-09-16T12:12:17.382Z,788.00
2018-09-16T12:13:17.368Z,768.00
2018-09-16T12:14:17.358Z,668.00
2018-09-16T12:15:17.357Z,784.00
2018-09-16T12:16:17.401Z,844.00
2018-09-16T12:17:17.313Z,792.00
2018-09-16T12:18:17.319Z,848.00
2018-09-16T12:19:17.307Z,872.00
2018-09-16T12:20:17.304Z,892.00
2018-09-16T12:21:17.276Z,836.00
2018-09-16T12:22:17.263Z,752.00
2018-09-16T12:23:17.286Z,752.00
2018-09-16T12:24:17.363Z,808.00
2018-09-16T12:25:17.244Z,768.00
2018-09-16T12:26:17.239Z,800.00
2018-09-16T12:27:17.216Z,792.00
2018-09-16T12:28:17.240Z,796.00
2018-09-16T12:29:17.214Z,908.00
2018-09-16T12:30:17.477Z,784.00
2018-09-16T12:31:17.184Z,792.00
2018-09-16T12:32:17.185Z,792.00
2018-09-16T12:33:17.159Z,776.00
2018-09-16T12:34:17.147Z,844.00
2018-09-16T12:35:17.151Z,788.00
2018-09-16T12:36:17.168Z,868.00
2018-09-16T12:37:17.113Z,904.00
2018-09-16T12:38:17.093Z,940.00
2018-09-16T12:39:17.114Z,988.00
2018-09-16T12:40:17.090Z,1168.00
2018-09-16T12:41:17.083Z,1092.00
2018-09-16T12:42:17.059Z,1052.00
2018-09-16T12:43:17.076Z,936.00
2018-09-16T12:44:17.053Z,940.00
2018-09-16T12:45:17.090Z,804.00
2018-09-16T12:46:17.013Z,912.00
2018-09-16T12:47:17.017Z,888.00
2018-09-16T12:48:17.002Z,836.00
2018-09-16T12:49:17.007Z,832.00
2018-09-16T12:50:16.984Z,792.00
2018-09-16T12:51:16.988Z,804.00
2018-09-16T12:52:16.954Z,884.00
2018-09-16T12:53:16.942Z,892.00
2018-09-16T12:54:16.948Z,876.00
2018-09-16T12:55:16.938Z,868.00
2018-09-16T12:56:16.941Z,876.00
2018-09-16T12:57:16.898Z,880.00
2018-09-16T12:58:16.896Z,900.00
2018-09-16T12:59:16.892Z,956.00
2018-09-16T13:00:16.864Z,1060.00
2018-09-16T13:01:17.187Z,1436.00
2018-09-16T13:02:16.876Z,2688.00
2018-09-16T13:03:16.899Z,1212.00